sensor_id;sensor_type;location;lat;lon;timestamp;P1;durP1;ratioP1;P2;durP2;ratioP2
38379;SDS011;38377;47.418;18.882;2024-02-04T00:02:07;0.93;;;0.50;;
38379;SDS011;38377;47.418;18.882;2024-02-04T00:04:34;1.33;;;0.63;;
38379;SDS011;38377;47.418;18.882;2024-02-04T00:07:00;1.20;;;0.50;;
38379;SDS011;38377;47.418;18.882;2024-02-04T00:09:26;0.88;;;0.60;;
38379;SDS011;38377;47.418;18.882;2024-02-04T00:11:54;0.70;;;0.50;;
38379;SDS011;38377;47.418;18.882;2024-02-04T00:14:19;2.00;;;0.60;;
38379;SDS011;38377;47.418;18.882;2024-02-04T00:16:45;1.17;;;0.70;;
38379;SDS011;38377;47.418;18.882;2024-02-04T00:19:10;2.40;;;0.50;;
38379;SDS011;38377;47.418;18.882;2024-02-04T00:21:36;3.35;;;0.50;;
38379;SDS011;38377;47.418;18.882;2024-02-04T00:24:02;0.95;;;0.60;;
38379;SDS011;38377;47.418;18.882;2024-02-04T00:26:27;1.27;;;0.65;;
38379;SDS011;38377;47.418;18.882;2024-02-04T00:28:53;0.50;;;0.40;;
38379;SDS011;38377;47.418;18.882;2024-02-04T00:31:18;1.48;;;1.02;;
38379;SDS011;38377;47.418;18.882;2024-02-04T00:33:44;0.80;;;0.50;;
38379;SDS011;38377;47.418;18.882;2024-02-04T00:36:09;1.35;;;0.50;;
38379;SDS011;38377;47.418;18.882;2024-02-04T00:38:35;1.02;;;0.50;;
38379;SDS011;38377;47.418;18.882;2024-02-04T00:41:00;1.02;;;0.50;;
38379;SDS011;38377;47.418;18.882;2024-02-04T00:43:26;1.63;;;0.60;;
38379;SDS011;38377;47.418;18.882;2024-02-04T00:45:52;0.80;;;0.38;;
38379;SDS011;38377;47.418;18.882;2024-02-04T00:48:19;1.10;;;0.50;;
38379;SDS011;38377;47.418;18.882;2024-02-04T00:50:45;0.85;;;0.45;;
38379;SDS011;38377;47.418;18.882;2024-02-04T00:53:11;1.08;;;0.60;;
38379;SDS011;38377;47.418;18.882;2024-02-04T00:55:36;1.00;;;0.50;;
38379;SDS011;38377;47.418;18.882;2024-02-04T00:58:02;1.17;;;0.60;;
38379;SDS011;38377;47.418;18.882;2024-02-04T01:00:27;0.88;;;0.43;;
38379;SDS011;38377;47.418;18.882;2024-02-04T01:02:53;1.00;;;0.40;;
38379;SDS011;38377;47.418;18.882;2024-02-04T01:05:18;0.50;;;0.43;;
38379;SDS011;38377;47.418;18.882;2024-02-04T01:07:44;0.80;;;0.43;;
38379;SDS011;38377;47.418;18.882;2024-02-04T01:10:10;0.93;;;0.68;;
38379;SDS011;38377;47.418;18.882;2024-02-04T01:12:36;1.08;;;0.70;;
38379;SDS011;38377;47.418;18.882;2024-02-04T01:15:01;0.60;;;0.40;;
38379;SDS011;38377;47.418;18.882;2024-02-04T01:17:30;1.67;;;0.93;;
38379;SDS011;38377;47.418;18.882;2024-02-04T01:19:56;1.42;;;0.80;;
38379;SDS011;38377;47.418;18.882;2024-02-04T01:22:21;0.85;;;0.50;;
38379;SDS011;38377;47.418;18.882;2024-02-04T01:24:51;0.80;;;0.50;;
38379;SDS011;38377;47.418;18.882;2024-02-04T01:27:17;1.15;;;0.68;;
38379;SDS011;38377;47.418;18.882;2024-02-04T01:29:42;1.25;;;0.70;;
38379;SDS011;38377;47.418;18.882;2024-02-04T01:32:08;1.55;;;0.85;;
38379;SDS011;38377;47.418;18.882;2024-02-04T01:34:33;1.13;;;0.80;;
38379;SDS011;38377;47.418;18.882;2024-02-04T01:36:59;2.05;;;0.98;;
38379;SDS011;38377;47.418;18.882;2024-02-04T01:39:24;0.88;;;0.60;;
38379;SDS011;38377;47.418;18.882;2024-02-04T01:41:50;1.10;;;0.70;;
38379;SDS011;38377;47.418;18.882;2024-02-04T01:44:16;1.90;;;0.98;;
38379;SDS011;38377;47.418;18.882;2024-02-04T01:46:43;1.80;;;0.90;;
38379;SDS011;38377;47.418;18.882;2024-02-04T01:49:09;1.30;;;1.10;;
38379;SDS011;38377;47.418;18.882;2024-02-04T01:51:35;1.10;;;0.82;;
38379;SDS011;38377;47.418;18.882;2024-02-04T01:54:01;1.95;;;1.13;;
38379;SDS011;38377;47.418;18.882;2024-02-04T01:56:28;2.53;;;1.40;;
38379;SDS011;38377;47.418;18.882;2024-02-04T01:58:54;2.65;;;1.20;;
38379;SDS011;38377;47.418;18.882;2024-02-04T02:01:20;1.42;;;1.20;;
38379;SDS011;38377;47.418;18.882;2024-02-04T02:03:47;1.92;;;1.23;;
38379;SDS011;38377;47.418;18.882;2024-02-04T02:06:15;1.75;;;1.10;;
38379;SDS011;38377;47.418;18.882;2024-02-04T02:08:41;2.10;;;1.50;;
38379;SDS011;38377;47.418;18.882;2024-02-04T02:11:11;2.45;;;1.58;;
38379;SDS011;38377;47.418;18.882;2024-02-04T02:13:42;2.83;;;1.70;;
38379;SDS011;38377;47.418;18.882;2024-02-04T02:16:16;3.22;;;1.70;;
38379;SDS011;38377;47.418;18.882;2024-02-04T02:18:57;3.60;;;1.60;;
38379;SDS011;38377;47.418;18.882;2024-02-04T02:21:50;2.13;;;1.58;;
38379;SDS011;38377;47.418;18.882;2024-02-04T02:26:48;2.25;;;1.80;;
38379;SDS011;38377;47.418;18.882;2024-02-04T02:29:15;2.17;;;1.55;;
38379;SDS011;38377;47.418;18.882;2024-02-04T02:31:41;3.15;;;1.88;;
38379;SDS011;38377;47.418;18.882;2024-02-04T02:34:08;2.45;;;2.20;;
38379;SDS011;38377;47.418;18.882;2024-02-04T02:36:36;2.95;;;1.48;;
38379;SDS011;38377;47.418;18.882;2024-02-04T02:41:42;3.08;;;1.88;;
38379;SDS011;38377;47.418;18.882;2024-02-04T02:44:12;2.38;;;1.70;;
38379;SDS011;38377;47.418;18.882;2024-02-04T02:46:40;2.58;;;2.08;;
38379;SDS011;38377;47.418;18.882;2024-02-04T02:49:05;2.55;;;2.22;;
38379;SDS011;38377;47.418;18.882;2024-02-04T02:51:31;2.80;;;1.88;;
38379;SDS011;38377;47.418;18.882;2024-02-04T02:53:57;2.03;;;1.83;;
38379;SDS011;38377;47.418;18.882;2024-02-04T02:56:22;1.95;;;1.63;;
38379;SDS011;38377;47.418;18.882;2024-02-04T02:58:48;2.63;;;1.80;;
38379;SDS011;38377;47.418;18.882;2024-02-04T03:01:13;2.67;;;1.90;;
38379;SDS011;38377;47.418;18.882;2024-02-04T03:03:39;5.07;;;1.63;;
38379;SDS011;38377;47.418;18.882;2024-02-04T03:06:05;2.83;;;2.00;;
38379;SDS011;38377;47.418;18.882;2024-02-04T03:08:31;1.75;;;1.42;;
38379;SDS011;38377;47.418;18.882;2024-02-04T03:10:57;2.58;;;1.90;;
38379;SDS011;38377;47.418;18.882;2024-02-04T03:13:22;1.95;;;1.60;;
38379;SDS011;38377;47.418;18.882;2024-02-04T03:15:48;2.05;;;1.45;;
38379;SDS011;38377;47.418;18.882;2024-02-04T03:18:13;2.80;;;1.92;;
38379;SDS011;38377;47.418;18.882;2024-02-04T03:20:39;3.83;;;2.00;;
38379;SDS011;38377;47.418;18.882;2024-02-04T03:23:04;2.78;;;1.50;;
38379;SDS011;38377;47.418;18.882;2024-02-04T03:25:30;2.85;;;2.00;;
38379;SDS011;38377;47.418;18.882;2024-02-04T03:27:56;2.13;;;1.60;;
38379;SDS011;38377;47.418;18.882;2024-02-04T03:30:21;2.13;;;1.67;;
38379;SDS011;38377;47.418;18.882;2024-02-04T03:32:47;3.17;;;2.15;;
38379;SDS011;38377;47.418;18.882;2024-02-04T03:35:12;2.70;;;1.95;;
38379;SDS011;38377;47.418;18.882;2024-02-04T03:37:38;2.63;;;1.92;;
38379;SDS011;38377;47.418;18.882;2024-02-04T03:40:04;4.82;;;2.10;;
38379;SDS011;38377;47.418;18.882;2024-02-04T03:42:30;3.85;;;2.38;;
38379;SDS011;38377;47.418;18.882;2024-02-04T03:44:56;3.13;;;2.35;;
38379;SDS011;38377;47.418;18.882;2024-02-04T03:47:21;3.38;;;2.40;;
38379;SDS011;38377;47.418;18.882;2024-02-04T03:49:47;2.70;;;2.10;;
38379;SDS011;38377;47.418;18.882;2024-02-04T03:52:12;3.78;;;2.40;;
38379;SDS011;38377;47.418;18.882;2024-02-04T03:54:38;3.17;;;2.25;;
38379;SDS011;38377;47.418;18.882;2024-02-04T03:57:04;3.92;;;2.83;;
38379;SDS011;38377;47.418;18.882;2024-02-04T03:59:29;4.75;;;2.75;;
38379;SDS011;38377;47.418;18.882;2024-02-04T04:01:55;2.92;;;2.38;;
38379;SDS011;38377;47.418;18.882;2024-02-04T04:04:22;3.13;;;2.38;;
38379;SDS011;38377;47.418;18.882;2024-02-04T04:06:48;4.25;;;3.20;;
38379;SDS011;38377;47.418;18.882;2024-02-04T04:09:14;3.33;;;2.53;;
38379;SDS011;38377;47.418;18.882;2024-02-04T04:11:40;3.38;;;2.67;;
38379;SDS011;38377;47.418;18.882;2024-02-04T04:14:05;5.82;;;2.85;;
38379;SDS011;38377;47.418;18.882;2024-02-04T04:16:31;3.72;;;2.83;;
38379;SDS011;38377;47.418;18.882;2024-02-04T04:18:57;3.83;;;2.72;;
38379;SDS011;38377;47.418;18.882;2024-02-04T04:21:26;4.63;;;2.55;;
38379;SDS011;38377;47.418;18.882;2024-02-04T04:23:51;4.85;;;2.85;;
38379;SDS011;38377;47.418;18.882;2024-02-04T04:26:17;5.45;;;2.67;;
38379;SDS011;38377;47.418;18.882;2024-02-04T04:28:42;3.38;;;2.90;;
38379;SDS011;38377;47.418;18.882;2024-02-04T04:31:08;2.95;;;2.63;;
38379;SDS011;38377;47.418;18.882;2024-02-04T04:33:35;3.90;;;2.60;;
38379;SDS011;38377;47.418;18.882;2024-02-04T04:36:01;3.08;;;2.70;;
38379;SDS011;38377;47.418;18.882;2024-02-04T04:38:26;2.63;;;2.10;;
38379;SDS011;38377;47.418;18.882;2024-02-04T04:40:52;4.63;;;2.67;;
38379;SDS011;38377;47.418;18.882;2024-02-04T04:43:18;2.75;;;2.08;;
38379;SDS011;38377;47.418;18.882;2024-02-04T04:45:43;3.38;;;2.42;;
38379;SDS011;38377;47.418;18.882;2024-02-04T04:48:12;4.10;;;2.33;;
38379;SDS011;38377;47.418;18.882;2024-02-04T04:50:37;2.75;;;2.10;;
38379;SDS011;38377;47.418;18.882;2024-02-04T04:53:03;3.17;;;2.20;;
38379;SDS011;38377;47.418;18.882;2024-02-04T04:55:29;2.70;;;2.10;;
38379;SDS011;38377;47.418;18.882;2024-02-04T04:57:54;2.55;;;1.92;;
38379;SDS011;38377;47.418;18.882;2024-02-04T05:00:20;3.50;;;2.40;;
38379;SDS011;38377;47.418;18.882;2024-02-04T05:02:45;3.95;;;2.45;;
38379;SDS011;38377;47.418;18.882;2024-02-04T05:05:12;3.05;;;2.15;;
38379;SDS011;38377;47.418;18.882;2024-02-04T05:07:39;3.20;;;2.20;;
38379;SDS011;38377;47.418;18.882;2024-02-04T05:10:04;4.10;;;2.08;;
38379;SDS011;38377;47.418;18.882;2024-02-04T05:12:32;3.00;;;2.30;;
38379;SDS011;38377;47.418;18.882;2024-02-04T05:14:58;3.33;;;2.30;;
38379;SDS011;38377;47.418;18.882;2024-02-04T05:17:24;4.50;;;2.50;;
38379;SDS011;38377;47.418;18.882;2024-02-04T05:19:49;2.75;;;2.15;;
38379;SDS011;38377;47.418;18.882;2024-02-04T05:22:15;2.58;;;2.17;;
38379;SDS011;38377;47.418;18.882;2024-02-04T05:24:41;3.38;;;2.58;;
38379;SDS011;38377;47.418;18.882;2024-02-04T05:27:07;3.22;;;2.30;;
38379;SDS011;38377;47.418;18.882;2024-02-04T05:29:33;3.63;;;2.55;;
38379;SDS011;38377;47.418;18.882;2024-02-04T05:31:58;5.28;;;2.53;;
38379;SDS011;38377;47.418;18.882;2024-02-04T05:34:24;5.07;;;2.88;;
38379;SDS011;38377;47.418;18.882;2024-02-04T05:36:50;3.38;;;2.92;;
38379;SDS011;38377;47.418;18.882;2024-02-04T05:39:15;3.40;;;2.65;;
38379;SDS011;38377;47.418;18.882;2024-02-04T05:41:42;3.65;;;2.58;;
38379;SDS011;38377;47.418;18.882;2024-02-04T05:44:08;3.65;;;2.80;;
38379;SDS011;38377;47.418;18.882;2024-02-04T05:46:34;3.50;;;2.70;;
38379;SDS011;38377;47.418;18.882;2024-02-04T05:49:00;3.58;;;2.95;;
38379;SDS011;38377;47.418;18.882;2024-02-04T05:51:26;3.88;;;3.03;;
38379;SDS011;38377;47.418;18.882;2024-02-04T05:53:52;3.47;;;2.80;;
38379;SDS011;38377;47.418;18.882;2024-02-04T05:56:18;3.65;;;2.78;;
38379;SDS011;38377;47.418;18.882;2024-02-04T05:58:45;3.92;;;2.50;;
38379;SDS011;38377;47.418;18.882;2024-02-04T06:01:11;5.75;;;3.40;;
38379;SDS011;38377;47.418;18.882;2024-02-04T06:03:36;4.00;;;2.63;;
38379;SDS011;38377;47.418;18.882;2024-02-04T06:06:02;4.35;;;3.00;;
38379;SDS011;38377;47.418;18.882;2024-02-04T06:08:27;3.30;;;2.80;;
38379;SDS011;38377;47.418;18.882;2024-02-04T06:10:53;3.53;;;2.63;;
38379;SDS011;38377;47.418;18.882;2024-02-04T06:13:19;3.88;;;2.85;;
38379;SDS011;38377;47.418;18.882;2024-02-04T06:15:44;3.03;;;2.35;;
38379;SDS011;38377;47.418;18.882;2024-02-04T06:18:10;2.70;;;2.25;;
38379;SDS011;38377;47.418;18.882;2024-02-04T06:20:36;3.58;;;2.47;;
38379;SDS011;38377;47.418;18.882;2024-02-04T06:23:01;3.45;;;2.50;;
38379;SDS011;38377;47.418;18.882;2024-02-04T06:25:27;2.95;;;2.08;;
38379;SDS011;38377;47.418;18.882;2024-02-04T06:27:52;2.10;;;1.85;;
38379;SDS011;38377;47.418;18.882;2024-02-04T06:30:18;3.08;;;2.28;;
38379;SDS011;38377;47.418;18.882;2024-02-04T06:32:43;2.97;;;2.03;;
38379;SDS011;38377;47.418;18.882;2024-02-04T06:35:09;3.03;;;2.10;;
38379;SDS011;38377;47.418;18.882;2024-02-04T06:37:35;2.72;;;2.00;;
38379;SDS011;38377;47.418;18.882;2024-02-04T06:40:00;2.58;;;2.05;;
38379;SDS011;38377;47.418;18.882;2024-02-04T06:42:26;2.30;;;1.77;;
38379;SDS011;38377;47.418;18.882;2024-02-04T06:44:51;1.70;;;1.45;;
38379;SDS011;38377;47.418;18.882;2024-02-04T06:47:17;2.45;;;1.80;;
38379;SDS011;38377;47.418;18.882;2024-02-04T06:49:45;2.50;;;2.00;;
38379;SDS011;38377;47.418;18.882;2024-02-04T06:52:11;1.83;;;1.50;;
38379;SDS011;38377;47.418;18.882;2024-02-04T06:54:37;2.42;;;1.77;;
38379;SDS011;38377;47.418;18.882;2024-02-04T06:57:02;1.73;;;1.50;;
38379;SDS011;38377;47.418;18.882;2024-02-04T06:59:28;2.20;;;1.35;;
38379;SDS011;38377;47.418;18.882;2024-02-04T07:01:54;1.50;;;1.40;;
38379;SDS011;38377;47.418;18.882;2024-02-04T07:04:19;2.40;;;1.50;;
38379;SDS011;38377;47.418;18.882;2024-02-04T07:06:47;1.65;;;1.23;;
38379;SDS011;38377;47.418;18.882;2024-02-04T07:09:12;1.80;;;1.45;;
38379;SDS011;38377;47.418;18.882;2024-02-04T07:11:38;2.05;;;1.55;;
38379;SDS011;38377;47.418;18.882;2024-02-04T07:14:04;1.83;;;1.48;;
38379;SDS011;38377;47.418;18.882;2024-02-04T07:16:31;2.92;;;2.20;;
38379;SDS011;38377;47.418;18.882;2024-02-04T07:18:57;2.58;;;1.67;;
38379;SDS011;38377;47.418;18.882;2024-02-04T07:21:22;1.75;;;1.17;;
38379;SDS011;38377;47.418;18.882;2024-02-04T07:23:48;2.25;;;1.52;;
38379;SDS011;38377;47.418;18.882;2024-02-04T07:26:14;2.30;;;1.50;;
38379;SDS011;38377;47.418;18.882;2024-02-04T07:28:39;1.58;;;1.33;;
38379;SDS011;38377;47.418;18.882;2024-02-04T07:31:05;2.85;;;1.85;;
38379;SDS011;38377;47.418;18.882;2024-02-04T07:33:31;2.92;;;1.92;;
38379;SDS011;38377;47.418;18.882;2024-02-04T07:35:56;2.42;;;1.58;;
38379;SDS011;38377;47.418;18.882;2024-02-04T07:38:22;1.70;;;1.52;;
38379;SDS011;38377;47.418;18.882;2024-02-04T07:40:47;1.73;;;1.40;;
38379;SDS011;38377;47.418;18.882;2024-02-04T07:43:13;4.45;;;2.70;;
38379;SDS011;38377;47.418;18.882;2024-02-04T07:45:38;1.25;;;1.10;;
38379;SDS011;38377;47.418;18.882;2024-02-04T07:48:04;1.60;;;1.30;;
38379;SDS011;38377;47.418;18.882;2024-02-04T07:50:30;1.60;;;1.02;;
38379;SDS011;38377;47.418;18.882;2024-02-04T07:52:55;1.55;;;1.10;;
38379;SDS011;38377;47.418;18.882;2024-02-04T07:55:21;2.60;;;1.25;;
38379;SDS011;38377;47.418;18.882;2024-02-04T07:57:46;1.35;;;0.77;;
38379;SDS011;38377;47.418;18.882;2024-02-04T08:00:12;1.42;;;0.98;;
38379;SDS011;38377;47.418;18.882;2024-02-04T08:02:38;1.58;;;0.98;;
38379;SDS011;38377;47.418;18.882;2024-02-04T08:05:04;1.73;;;1.35;;
38379;SDS011;38377;47.418;18.882;2024-02-04T08:07:30;1.75;;;1.10;;
38379;SDS011;38377;47.418;18.882;2024-02-04T08:09:56;1.67;;;1.13;;
38379;SDS011;38377;47.418;18.882;2024-02-04T08:12:22;2.05;;;1.30;;
38379;SDS011;38377;47.418;18.882;2024-02-04T08:14:48;1.38;;;1.17;;
38379;SDS011;38377;47.418;18.882;2024-02-04T08:17:13;1.90;;;1.10;;
38379;SDS011;38377;47.418;18.882;2024-02-04T08:19:39;1.38;;;1.17;;
38379;SDS011;38377;47.418;18.882;2024-02-04T08:22:05;2.38;;;1.40;;
38379;SDS011;38377;47.418;18.882;2024-02-04T08:24:31;4.05;;;1.40;;
38379;SDS011;38377;47.418;18.882;2024-02-04T08:26:57;1.55;;;1.20;;
38379;SDS011;38377;47.418;18.882;2024-02-04T08:29:24;1.80;;;1.35;;
38379;SDS011;38377;47.418;18.882;2024-02-04T08:31:49;2.10;;;1.67;;
38379;SDS011;38377;47.418;18.882;2024-02-04T08:34:17;1.90;;;1.50;;
38379;SDS011;38377;47.418;18.882;2024-02-04T08:36:44;1.38;;;1.27;;
38379;SDS011;38377;47.418;18.882;2024-02-04T08:39:10;1.40;;;1.08;;
38379;SDS011;38377;47.418;18.882;2024-02-04T08:41:35;1.58;;;0.95;;
38379;SDS011;38377;47.418;18.882;2024-02-04T08:44:01;1.88;;;1.13;;
38379;SDS011;38377;47.418;18.882;2024-02-04T08:46:26;1.42;;;0.90;;
38379;SDS011;38377;47.418;18.882;2024-02-04T08:48:52;2.15;;;1.40;;
38379;SDS011;38377;47.418;18.882;2024-02-04T08:51:18;1.35;;;1.25;;
38379;SDS011;38377;47.418;18.882;2024-02-04T08:53:44;1.75;;;0.85;;
38379;SDS011;38377;47.418;18.882;2024-02-04T08:56:10;2.25;;;0.90;;
38379;SDS011;38377;47.418;18.882;2024-02-04T08:58:35;1.70;;;1.10;;
38379;SDS011;38377;47.418;18.882;2024-02-04T09:01:02;1.73;;;0.82;;
38379;SDS011;38377;47.418;18.882;2024-02-04T09:03:28;1.13;;;0.75;;
38379;SDS011;38377;47.418;18.882;2024-02-04T09:05:54;1.10;;;0.90;;
38379;SDS011;38377;47.418;18.882;2024-02-04T09:08:20;3.65;;;1.35;;
38379;SDS011;38377;47.418;18.882;2024-02-04T09:10:46;1.05;;;0.80;;
38379;SDS011;38377;47.418;18.882;2024-02-04T09:13:11;1.50;;;0.90;;
38379;SDS011;38377;47.418;18.882;2024-02-04T09:15:37;0.80;;;0.70;;
38379;SDS011;38377;47.418;18.882;2024-02-04T09:18:02;0.90;;;0.68;;
38379;SDS011;38377;47.418;18.882;2024-02-04T09:20:28;1.00;;;0.82;;
38379;SDS011;38377;47.418;18.882;2024-02-04T09:22:54;1.20;;;0.90;;
38379;SDS011;38377;47.418;18.882;2024-02-04T09:25:19;1.40;;;0.80;;
38379;SDS011;38377;47.418;18.882;2024-02-04T09:27:45;1.23;;;0.80;;
38379;SDS011;38377;47.418;18.882;2024-02-04T09:30:10;0.80;;;0.50;;
38379;SDS011;38377;47.418;18.882;2024-02-04T09:32:36;1.30;;;1.02;;
38379;SDS011;38377;47.418;18.882;2024-02-04T09:35:02;1.23;;;0.90;;
38379;SDS011;38377;47.418;18.882;2024-02-04T09:37:28;1.42;;;0.80;;
38379;SDS011;38377;47.418;18.882;2024-02-04T09:39:54;1.63;;;0.90;;
38379;SDS011;38377;47.418;18.882;2024-02-04T09:42:20;1.30;;;0.75;;
38379;SDS011;38377;47.418;18.882;2024-02-04T09:44:49;1.27;;;0.75;;
38379;SDS011;38377;47.418;18.882;2024-02-04T09:47:15;1.10;;;0.80;;
38379;SDS011;38377;47.418;18.882;2024-02-04T09:49:42;1.23;;;0.65;;
38379;SDS011;38377;47.418;18.882;2024-02-04T09:52:08;1.35;;;0.90;;
38379;SDS011;38377;47.418;18.882;2024-02-04T09:54:44;1.02;;;0.65;;
38379;SDS011;38377;47.418;18.882;2024-02-04T09:57:13;2.38;;;0.90;;
38379;SDS011;38377;47.418;18.882;2024-02-04T09:59:39;1.58;;;0.60;;
38379;SDS011;38377;47.418;18.882;2024-02-04T10:02:05;1.63;;;0.80;;
38379;SDS011;38377;47.418;18.882;2024-02-04T10:04:32;1.58;;;1.05;;
38379;SDS011;38377;47.418;18.882;2024-02-04T10:06:58;4.88;;;2.53;;
38379;SDS011;38377;47.418;18.882;2024-02-04T10:09:24;11.00;;;5.47;;
38379;SDS011;38377;47.418;18.882;2024-02-04T10:11:50;1.98;;;0.88;;
38379;SDS011;38377;47.418;18.882;2024-02-04T10:14:15;6.50;;;2.85;;
38379;SDS011;38377;47.418;18.882;2024-02-04T10:16:41;5.53;;;1.95;;
38379;SDS011;38377;47.418;18.882;2024-02-04T10:19:07;3.30;;;1.73;;
38379;SDS011;38377;47.418;18.882;2024-02-04T10:21:32;10.65;;;4.90;;
38379;SDS011;38377;47.418;18.882;2024-02-04T10:23:58;3.75;;;1.92;;
38379;SDS011;38377;47.418;18.882;2024-02-04T10:26:23;5.32;;;2.05;;
38379;SDS011;38377;47.418;18.882;2024-02-04T10:28:57;1.10;;;0.80;;
38379;SDS011;38377;47.418;18.882;2024-02-04T10:31:23;0.88;;;0.70;;
38379;SDS011;38377;47.418;18.882;2024-02-04T10:33:50;2.08;;;1.13;;
38379;SDS011;38377;47.418;18.882;2024-02-04T10:36:16;1.38;;;0.80;;
38379;SDS011;38377;47.418;18.882;2024-02-04T10:38:42;1.90;;;1.00;;
38379;SDS011;38377;47.418;18.882;2024-02-04T10:41:07;1.02;;;0.68;;
38379;SDS011;38377;47.418;18.882;2024-02-04T10:43:39;1.20;;;1.00;;
38379;SDS011;38377;47.418;18.882;2024-02-04T10:48:51;0.93;;;0.63;;
38379;SDS011;38377;47.418;18.882;2024-02-04T10:51:21;2.92;;;2.30;;
38379;SDS011;38377;47.418;18.882;2024-02-04T10:53:50;2.30;;;2.10;;
38379;SDS011;38377;47.418;18.882;2024-02-04T10:56:19;2.28;;;1.92;;
38379;SDS011;38377;47.418;18.882;2024-02-04T10:58:50;1.17;;;0.80;;
38379;SDS011;38377;47.418;18.882;2024-02-04T11:01:17;1.00;;;0.70;;
38379;SDS011;38377;47.418;18.882;2024-02-04T11:03:43;1.50;;;1.27;;
38379;SDS011;38377;47.418;18.882;2024-02-04T11:06:11;0.80;;;0.52;;
38379;SDS011;38377;47.418;18.882;2024-02-04T11:08:38;1.10;;;0.73;;
38379;SDS011;38377;47.418;18.882;2024-02-04T11:11:04;3.72;;;1.33;;
38379;SDS011;38377;47.418;18.882;2024-02-04T11:13:30;1.10;;;0.80;;
38379;SDS011;38377;47.418;18.882;2024-02-04T11:15:57;0.68;;;0.55;;
38379;SDS011;38377;47.418;18.882;2024-02-04T11:26:33;0.52;;;0.43;;
38379;SDS011;38377;47.418;18.882;2024-02-04T11:29:00;1.25;;;0.70;;
38379;SDS011;38377;47.418;18.882;2024-02-04T11:31:27;0.82;;;0.50;;
38379;SDS011;38377;47.418;18.882;2024-02-04T11:33:54;1.13;;;0.80;;
38379;SDS011;38377;47.418;18.882;2024-02-04T11:36:24;0.60;;;0.50;;
38379;SDS011;38377;47.418;18.882;2024-02-04T11:38:50;0.30;;;0.30;;
38379;SDS011;38377;47.418;18.882;2024-02-04T11:41:22;0.82;;;0.30;;
38379;SDS011;38377;47.418;18.882;2024-02-04T11:43:51;0.75;;;0.50;;
38379;SDS011;38377;47.418;18.882;2024-02-04T11:46:20;0.75;;;0.40;;
38379;SDS011;38377;47.418;18.882;2024-02-04T11:48:52;1.15;;;0.60;;
38379;SDS011;38377;47.418;18.882;2024-02-04T11:51:21;0.70;;;0.40;;
38379;SDS011;38377;47.418;18.882;2024-02-04T11:53:49;0.93;;;0.40;;
38379;SDS011;38377;47.418;18.882;2024-02-04T11:56:15;2.05;;;0.45;;
38379;SDS011;38377;47.418;18.882;2024-02-04T11:58:44;0.60;;;0.30;;
38379;SDS011;38377;47.418;18.882;2024-02-04T12:01:10;0.70;;;0.40;;
38379;SDS011;38377;47.418;18.882;2024-02-04T12:03:39;0.82;;;0.30;;
38379;SDS011;38377;47.418;18.882;2024-02-04T12:06:04;1.00;;;0.30;;
38379;SDS011;38377;47.418;18.882;2024-02-04T12:08:32;2.10;;;0.60;;
38379;SDS011;38377;47.418;18.882;2024-02-04T12:10:59;0.93;;;0.40;;
38379;SDS011;38377;47.418;18.882;2024-02-04T12:13:26;0.95;;;0.50;;
38379;SDS011;38377;47.418;18.882;2024-02-04T12:15:53;0.70;;;0.50;;
38379;SDS011;38377;47.418;18.882;2024-02-04T12:18:19;2.03;;;0.70;;
38379;SDS011;38377;47.418;18.882;2024-02-04T12:20:47;1.08;;;0.75;;
38379;SDS011;38377;47.418;18.882;2024-02-04T12:23:14;1.00;;;0.47;;
38379;SDS011;38377;47.418;18.882;2024-02-04T12:25:40;1.23;;;0.60;;
38379;SDS011;38377;47.418;18.882;2024-02-04T12:28:06;2.95;;;0.55;;
38379;SDS011;38377;47.418;18.882;2024-02-04T12:30:32;1.45;;;0.40;;
38379;SDS011;38377;47.418;18.882;2024-02-04T12:32:58;1.20;;;0.70;;
38379;SDS011;38377;47.418;18.882;2024-02-04T12:35:25;0.90;;;0.70;;
38379;SDS011;38377;47.418;18.882;2024-02-04T12:37:52;0.80;;;0.40;;
38379;SDS011;38377;47.418;18.882;2024-02-04T12:40:22;1.10;;;0.50;;
38379;SDS011;38377;47.418;18.882;2024-02-04T12:43:01;1.88;;;1.00;;
38379;SDS011;38377;47.418;18.882;2024-02-04T12:45:28;1.10;;;0.80;;
38379;SDS011;38377;47.418;18.882;2024-02-04T12:47:55;1.58;;;1.15;;
38379;SDS011;38377;47.418;18.882;2024-02-04T12:50:22;3.30;;;0.93;;
38379;SDS011;38377;47.418;18.882;2024-02-04T12:53:02;1.30;;;0.60;;
38379;SDS011;38377;47.418;18.882;2024-02-04T12:58:03;0.70;;;0.30;;
38379;SDS011;38377;47.418;18.882;2024-02-04T13:00:34;0.85;;;0.73;;
38379;SDS011;38377;47.418;18.882;2024-02-04T13:03:02;0.80;;;0.47;;
38379;SDS011;38377;47.418;18.882;2024-02-04T13:05:28;0.82;;;0.43;;
38379;SDS011;38377;47.418;18.882;2024-02-04T13:07:56;1.02;;;0.60;;
38379;SDS011;38377;47.418;18.882;2024-02-04T13:10:24;0.77;;;0.40;;
38379;SDS011;38377;47.418;18.882;2024-02-04T13:13:03;0.65;;;0.40;;
38379;SDS011;38377;47.418;18.882;2024-02-04T13:15:42;1.02;;;0.60;;
38379;SDS011;38377;47.418;18.882;2024-02-04T13:18:08;0.80;;;0.50;;
38379;SDS011;38377;47.418;18.882;2024-02-04T13:20:42;0.63;;;0.30;;
38379;SDS011;38377;47.418;18.882;2024-02-04T13:23:08;0.50;;;0.20;;
38379;SDS011;38377;47.418;18.882;2024-02-04T13:25:34;0.70;;;0.40;;
38379;SDS011;38377;47.418;18.882;2024-02-04T13:28:00;0.60;;;0.50;;
38379;SDS011;38377;47.418;18.882;2024-02-04T13:30:26;0.57;;;0.40;;
38379;SDS011;38377;47.418;18.882;2024-02-04T13:32:52;1.38;;;0.43;;
38379;SDS011;38377;47.418;18.882;2024-02-04T13:35:17;1.00;;;0.60;;
38379;SDS011;38377;47.418;18.882;2024-02-04T13:37:44;0.82;;;0.57;;
38379;SDS011;38377;47.418;18.882;2024-02-04T13:40:14;0.98;;;0.30;;
38379;SDS011;38377;47.418;18.882;2024-02-04T13:42:45;0.70;;;0.32;;
38379;SDS011;38377;47.418;18.882;2024-02-04T13:45:12;1.83;;;0.80;;
38379;SDS011;38377;47.418;18.882;2024-02-04T13:47:42;1.40;;;0.85;;
38379;SDS011;38377;47.418;18.882;2024-02-04T13:50:08;1.58;;;0.52;;
38379;SDS011;38377;47.418;18.882;2024-02-04T13:52:37;1.08;;;0.43;;
38379;SDS011;38377;47.418;18.882;2024-02-04T13:55:04;1.15;;;0.70;;
38379;SDS011;38377;47.418;18.882;2024-02-04T13:57:33;4.40;;;0.90;;
38379;SDS011;38377;47.418;18.882;2024-02-04T13:59:59;2.00;;;1.20;;
38379;SDS011;38377;47.418;18.882;2024-02-04T14:02:25;1.85;;;0.52;;
38379;SDS011;38377;47.418;18.882;2024-02-04T14:04:54;1.20;;;0.70;;
38379;SDS011;38377;47.418;18.882;2024-02-04T14:07:21;0.70;;;0.68;;
38379;SDS011;38377;47.418;18.882;2024-02-04T14:09:47;0.90;;;0.40;;
38379;SDS011;38377;47.418;18.882;2024-02-04T14:12:13;0.82;;;0.40;;
38379;SDS011;38377;47.418;18.882;2024-02-04T14:14:39;2.08;;;0.30;;
38379;SDS011;38377;47.418;18.882;2024-02-04T14:17:05;1.13;;;0.82;;
38379;SDS011;38377;47.418;18.882;2024-02-04T14:19:31;1.27;;;0.77;;
38379;SDS011;38377;47.418;18.882;2024-02-04T14:21:57;1.83;;;1.08;;
38379;SDS011;38377;47.418;18.882;2024-02-04T14:24:23;0.60;;;0.60;;
38379;SDS011;38377;47.418;18.882;2024-02-04T14:26:55;0.63;;;0.40;;
38379;SDS011;38377;47.418;18.882;2024-02-04T14:29:24;1.02;;;0.50;;
38379;SDS011;38377;47.418;18.882;2024-02-04T14:31:51;0.73;;;0.30;;
38379;SDS011;38377;47.418;18.882;2024-02-04T14:34:17;1.10;;;0.30;;
38379;SDS011;38377;47.418;18.882;2024-02-04T14:36:43;0.95;;;0.45;;
38379;SDS011;38377;47.418;18.882;2024-02-04T14:39:08;0.47;;;0.20;;
38379;SDS011;38377;47.418;18.882;2024-02-04T14:41:35;0.73;;;0.40;;
38379;SDS011;38377;47.418;18.882;2024-02-04T14:44:01;0.90;;;0.50;;
38379;SDS011;38377;47.418;18.882;2024-02-04T14:46:27;2.10;;;0.77;;
38379;SDS011;38377;47.418;18.882;2024-02-04T14:48:52;1.27;;;0.50;;